createdAt,value
2018-02-19T00:02:29.370Z,69.34
2018-02-19T00:05:00.390Z,69.18
2018-02-19T00:07:31.331Z,69.26
2018-02-19T00:10:02.384Z,69.72
2018-02-19T00:12:33.376Z,69.45
2018-02-19T00:15:04.412Z,69.57
2018-02-19T00:17:35.392Z,69.50
2018-02-19T00:20:06.425Z,69.73
2018-02-19T00:22:37.400Z,69.76
2018-02-19T00:25:08.422Z,69.70
2018-02-19T00:27:39.392Z,69.59
2018-02-19T00:30:10.394Z,69.74
2018-02-19T00:32:41.389Z,69.47
2018-02-19T00:35:12.413Z,69.28
2018-02-19T00:37:43.367Z,69.23
2018-02-19T00:40:14.407Z,69.30
2018-02-19T00:42:45.407Z,69.19
2018-02-19T00:45:16.454Z,69.17
2018-02-19T00:47:47.436Z,68.94
2018-02-19T00:50:18.496Z,68.91
2018-02-19T00:52:49.449Z,68.86
2018-02-19T00:55:20.531Z,68.85
2018-02-19T00:57:51.505Z,68.79
2018-02-19T01:00:22.822Z,68.99
2018-02-19T01:02:53.758Z,68.81
2018-02-19T01:05:24.838Z,68.73
2018-02-19T01:07:55.810Z,69.00
2018-02-19T01:10:26.825Z,69.13
2018-02-19T01:12:57.844Z,68.96
2018-02-19T01:15:28.810Z,68.82
2018-02-19T01:17:59.820Z,68.50
2018-02-19T01:20:30.874Z,68.47
2018-02-19T01:23:01.859Z,68.66
2018-02-19T01:25:32.908Z,68.83
2018-02-19T01:28:03.878Z,68.79
2018-02-19T01:30:34.903Z,68.80
2018-02-19T01:33:05.857Z,68.64
2018-02-19T01:35:36.941Z,68.65
2018-02-19T01:38:07.918Z,69.07
2018-02-19T01:40:38.955Z,69.24
2018-02-19T01:43:09.963Z,69.16
2018-02-19T01:45:40.948Z,68.90
2018-02-19T01:48:11.948Z,68.56
2018-02-19T01:50:42.932Z,68.30
2018-02-19T01:53:13.922Z,68.23
2018-02-19T01:55:44.927Z,68.52
2018-02-19T01:58:15.937Z,68.74
2018-02-19T02:00:47.032Z,68.71
2018-02-19T02:03:18.041Z,68.69
2018-02-19T02:05:49.007Z,68.37
2018-02-19T02:08:20.012Z,68.13
2018-02-19T02:10:50.967Z,67.92
2018-02-19T02:13:22.046Z,67.99
2018-02-19T02:15:53.009Z,67.79
2018-02-19T02:18:24.077Z,67.67
2018-02-19T02:20:55.049Z,67.67
2018-02-19T02:23:26.068Z,67.70
2018-02-19T02:25:57.354Z,67.62
2018-02-19T02:28:28.352Z,67.60
2018-02-19T02:30:59.350Z,67.61
2018-02-19T02:33:30.377Z,67.66
2018-02-19T02:36:01.353Z,67.80
2018-02-19T02:38:32.346Z,67.76
2018-02-19T02:41:03.303Z,67.76
2018-02-19T02:43:34.373Z,67.67
2018-02-19T02:46:05.316Z,67.84
2018-02-19T02:48:36.314Z,67.76
2018-02-19T02:51:07.332Z,67.69
2018-02-19T02:53:38.365Z,67.52
2018-02-19T02:56:09.347Z,67.96
2018-02-19T02:58:40.305Z,67.76
2018-02-19T03:01:11.357Z,67.69
2018-02-19T03:03:42.330Z,67.77
2018-02-19T03:06:13.411Z,67.68
2018-02-19T03:08:44.432Z,67.63
2018-02-19T03:11:15.400Z,67.72
2018-02-19T03:13:46.367Z,67.52
2018-02-19T03:16:17.357Z,67.30
2018-02-19T03:18:48.353Z,67.52
2018-02-19T03:21:19.326Z,67.57
2018-02-19T03:23:50.306Z,67.66
2018-02-19T03:26:21.249Z,67.86
2018-02-19T03:28:52.248Z,67.98
2018-02-19T03:31:23.234Z,67.95
2018-02-19T03:33:54.229Z,67.94
2018-02-19T03:36:25.270Z,67.94
2018-02-19T03:38:56.280Z,68.19
2018-02-19T03:41:27.279Z,68.18
2018-02-19T03:43:58.247Z,68.18
2018-02-19T03:46:29.248Z,68.14
2018-02-19T03:49:00.200Z,67.91
2018-02-19T03:51:31.146Z,67.61
2018-02-19T03:54:02.211Z,67.60
2018-02-19T03:56:33.151Z,67.61
2018-02-19T03:59:04.113Z,67.60
2018-02-19T04:01:35.143Z,67.83
2018-02-19T04:04:06.169Z,68.03
2018-02-19T04:06:37.181Z,68.06
2018-02-19T04:09:08.122Z,68.01
2018-02-19T04:11:39.115Z,68.21
2018-02-19T04:14:10.076Z,68.10
2018-02-19T04:16:41.263Z,67.93
2018-02-19T04:19:12.285Z,67.95
2018-02-19T04:21:43.321Z,67.86
2018-02-19T04:24:14.296Z,68.06
2018-02-19T04:26:45.414Z,67.90
2018-02-19T04:29:16.410Z,67.87
2018-02-19T04:31:47.426Z,67.81
2018-02-19T04:34:18.422Z,67.88
2018-02-19T04:36:49.419Z,67.95
2018-02-19T04:39:20.352Z,67.98
2018-02-19T04:41:51.340Z,68.12
2018-02-19T04:44:36.323Z,68.36
2018-02-19T04:47:07.376Z,68.54
2018-02-19T04:49:38.347Z,68.83
2018-02-19T04:52:09.394Z,68.64
2018-02-19T04:54:40.389Z,68.52
2018-02-19T04:57:11.402Z,68.24
2018-02-19T04:59:42.413Z,68.06
2018-02-19T05:02:13.408Z,68.09
2018-02-19T05:04:44.389Z,68.05
2018-02-19T05:07:15.402Z,68.27
2018-02-19T05:09:46.367Z,68.42
2018-02-19T05:12:17.410Z,68.33
2018-02-19T05:14:48.381Z,68.34
2018-02-19T05:17:19.489Z,68.33
2018-02-19T05:19:50.491Z,68.34
2018-02-19T05:22:21.461Z,68.66
2018-02-19T05:24:52.442Z,69.19
2018-02-19T05:27:23.519Z,69.25
2018-02-19T05:29:54.516Z,69.19
2018-02-19T05:32:25.528Z,68.98
2018-02-19T05:34:56.551Z,68.98
2018-02-19T05:37:27.557Z,68.92
2018-02-19T05:39:58.538Z,68.90
2018-02-19T05:42:29.579Z,68.92
2018-02-19T05:45:00.619Z,69.24
2018-02-19T05:47:31.614Z,69.01
2018-02-19T05:50:02.695Z,68.80
2018-02-19T05:52:33.664Z,68.75
2018-02-19T05:55:04.648Z,68.54
2018-02-19T05:57:35.718Z,68.74
2018-02-19T06:00:06.713Z,68.47
2018-02-19T06:02:37.695Z,67.93
2018-02-19T06:05:08.688Z,67.35
2018-02-19T06:07:39.688Z,66.75
2018-02-19T06:10:10.787Z,66.28
2018-02-19T06:12:41.724Z,65.33
2018-02-19T06:15:12.725Z,64.59
2018-02-19T06:17:43.941Z,64.28
2018-02-19T06:20:14.923Z,63.70
2018-02-19T06:22:45.945Z,63.06
2018-02-19T06:25:16.980Z,62.79
2018-02-19T06:27:48.182Z,62.67
2018-02-19T06:30:19.169Z,62.27
2018-02-19T06:32:50.210Z,61.64
2018-02-19T06:35:21.179Z,61.17
2018-02-19T06:37:52.181Z,61.10
2018-02-19T06:40:23.175Z,60.83
2018-02-19T06:42:54.256Z,60.49
2018-02-19T06:45:25.230Z,60.40
2018-02-19T06:47:56.275Z,60.30
2018-02-19T06:50:27.270Z,60.02
2018-02-19T06:52:58.316Z,59.72
2018-02-19T06:55:29.342Z,59.56
2018-02-19T06:58:00.392Z,59.46
2018-02-19T07:00:31.364Z,59.17
2018-02-19T07:03:02.377Z,58.88
2018-02-19T07:05:33.380Z,58.56
2018-02-19T07:08:04.410Z,58.33
2018-02-19T07:10:35.420Z,58.89
2018-02-19T07:13:06.480Z,58.82
2018-02-19T07:15:37.485Z,58.72
2018-02-19T07:18:08.620Z,58.67
2018-02-19T07:20:39.645Z,58.89
2018-02-19T07:23:10.648Z,58.90
2018-02-19T07:25:41.718Z,58.65
2018-02-19T07:28:12.738Z,58.77
2018-02-19T07:30:43.727Z,58.41
2018-02-19T07:33:14.735Z,58.05
2018-02-19T07:35:45.763Z,57.38
2018-02-19T07:38:16.753Z,57.00
2018-02-19T07:40:47.804Z,56.58
2018-02-19T07:43:18.795Z,55.89
2018-02-19T07:45:49.860Z,55.35
2018-02-19T07:48:20.834Z,55.37
2018-02-19T07:50:51.849Z,55.34
2018-02-19T07:53:22.895Z,53.92
2018-02-19T07:55:53.879Z,54.06
2018-02-19T07:58:24.886Z,54.31
2018-02-19T08:00:55.891Z,54.26
2018-02-19T08:03:26.944Z,54.30
2018-02-19T08:05:57.915Z,53.88
2018-02-19T08:08:28.937Z,53.73
2018-02-19T08:10:59.945Z,53.62
2018-02-19T08:13:30.968Z,53.23
2018-02-19T08:16:01.947Z,52.83
2018-02-19T08:18:33.030Z,52.78
2018-02-19T08:21:04.058Z,52.63
2018-02-19T08:23:35.051Z,51.94
2018-02-19T08:26:06.067Z,52.15
2018-02-19T08:28:37.046Z,51.96
2018-02-19T08:31:08.074Z,51.33
2018-02-19T08:33:39.084Z,50.70
2018-02-19T08:36:10.083Z,50.35
2018-02-19T08:38:41.091Z,49.84
2018-02-19T08:41:12.070Z,50.01
2018-02-19T08:43:49.955Z,50.05
2018-02-19T08:46:20.976Z,49.57
2018-02-19T08:48:52.085Z,48.21
2018-02-19T08:51:23.125Z,48.90
2018-02-19T08:53:54.121Z,48.84
2018-02-19T08:56:25.127Z,47.58
2018-02-19T08:58:56.165Z,47.54
2018-02-19T09:01:27.211Z,48.20
2018-02-19T09:03:58.151Z,48.19
2018-02-19T09:06:29.186Z,48.25
2018-02-19T09:09:00.210Z,47.79
2018-02-19T09:11:31.243Z,46.95
2018-02-19T09:14:02.283Z,46.99
2018-02-19T09:16:33.289Z,47.01
2018-02-19T09:19:04.271Z,46.50
2018-02-19T09:21:35.297Z,46.89
2018-02-19T09:24:06.360Z,46.47
2018-02-19T09:26:37.315Z,46.29
2018-02-19T09:29:08.350Z,46.23
2018-02-19T09:31:39.325Z,45.65
2018-02-19T09:34:10.418Z,45.91
2018-02-19T09:36:41.375Z,46.14
2018-02-19T09:39:12.402Z,46.12
2018-02-19T09:41:43.480Z,46.24
2018-02-19T09:44:14.444Z,46.89
2018-02-19T09:46:45.417Z,47.41
2018-02-19T09:49:16.468Z,47.22
2018-02-19T09:51:47.490Z,46.71
2018-02-19T09:54:18.505Z,46.12
2018-02-19T09:56:49.500Z,46.04
2018-02-19T09:59:20.550Z,45.74
2018-02-19T10:01:51.551Z,45.22
2018-02-19T10:04:22.615Z,45.12
2018-02-19T10:06:53.672Z,44.66
2018-02-19T10:09:24.650Z,44.80
2018-02-19T10:11:55.655Z,44.94
2018-02-19T10:14:27.592Z,45.28
2018-02-19T10:16:58.650Z,45.29
2018-02-19T10:19:29.683Z,44.71
2018-02-19T10:22:00.735Z,43.90
2018-02-19T10:24:31.775Z,43.86
2018-02-19T10:27:02.752Z,43.72
2018-02-19T10:29:33.796Z,43.86
2018-02-19T10:32:04.797Z,43.76
2018-02-19T10:34:35.835Z,43.83
2018-02-19T10:37:06.918Z,43.86
2018-02-19T10:39:37.929Z,44.33
2018-02-19T10:42:08.969Z,44.41
2018-02-19T10:44:40.084Z,45.05
2018-02-19T10:47:11.127Z,45.87
2018-02-19T10:49:42.136Z,45.84
2018-02-19T10:52:13.148Z,45.02
2018-02-19T10:54:44.169Z,44.43
2018-02-19T10:57:15.250Z,44.41
2018-02-19T10:59:53.208Z,44.13
2018-02-19T11:02:24.208Z,44.68
2018-02-19T11:04:55.255Z,44.96
2018-02-19T11:07:26.256Z,44.12
2018-02-19T11:09:57.268Z,43.62
2018-02-19T11:12:28.270Z,42.84
2018-02-19T11:14:59.314Z,42.82
2018-02-19T11:17:30.280Z,43.24
2018-02-19T11:20:01.319Z,42.96
2018-02-19T11:22:32.311Z,43.73
2018-02-19T11:25:03.334Z,43.94
2018-02-19T11:27:34.313Z,43.51
2018-02-19T11:30:05.351Z,42.61
2018-02-19T11:32:36.300Z,42.65
2018-02-19T11:35:07.327Z,42.79
2018-02-19T11:37:38.319Z,43.03
2018-02-19T11:40:09.311Z,41.91
2018-02-19T11:42:40.453Z,42.36
2018-02-19T11:45:11.459Z,42.38
2018-02-19T11:47:42.468Z,42.02
2018-02-19T11:50:13.446Z,42.38
2018-02-19T11:52:44.487Z,42.45
2018-02-19T11:55:15.497Z,42.12
2018-02-19T11:57:46.571Z,41.95
2018-02-19T12:00:17.577Z,42.16
2018-02-19T12:02:48.621Z,41.39
2018-02-19T12:05:19.633Z,41.40
2018-02-19T12:07:50.599Z,41.50
2018-02-19T12:10:21.699Z,41.16
2018-02-19T12:12:52.659Z,40.83
2018-02-19T12:15:23.710Z,40.98
2018-02-19T12:17:54.750Z,41.09
2018-02-19T12:20:25.773Z,40.97
2018-02-19T12:22:56.791Z,41.44
2018-02-19T12:25:27.815Z,41.72
2018-02-19T12:27:58.831Z,41.43
2018-02-19T12:30:29.812Z,41.39
2018-02-19T12:33:00.871Z,41.20
2018-02-19T12:35:31.925Z,41.48
2018-02-19T12:38:02.960Z,41.60
2018-02-19T12:40:33.992Z,41.93
2018-02-19T12:43:05.021Z,42.07
2018-02-19T12:45:36.008Z,41.48
2018-02-19T12:48:07.064Z,41.35
2018-02-19T12:50:38.088Z,41.30
2018-02-19T12:53:09.122Z,41.49
2018-02-19T12:55:40.143Z,41.54
2018-02-19T12:58:11.130Z,42.17
2018-02-19T13:00:42.155Z,42.78
2018-02-19T13:03:13.179Z,43.05
2018-02-19T13:05:44.197Z,42.55
2018-02-19T13:08:15.191Z,42.17
2018-02-19T13:10:46.202Z,42.40
2018-02-19T13:13:17.152Z,42.25
2018-02-19T13:15:48.143Z,43.04
2018-02-19T13:18:19.139Z,42.89
2018-02-19T13:20:50.160Z,42.44
2018-02-19T13:23:21.170Z,42.09
2018-02-19T13:25:52.187Z,42.08
2018-02-19T13:28:23.192Z,41.69
2018-02-19T13:30:54.226Z,42.24
2018-02-19T13:33:25.246Z,42.87
2018-02-19T13:35:56.255Z,43.66
2018-02-19T13:38:27.240Z,43.33
2018-02-19T13:40:59.293Z,43.09
2018-02-19T13:43:35.160Z,42.29
2018-02-19T13:46:06.207Z,42.27
2018-02-19T13:48:37.286Z,42.08
2018-02-19T13:51:08.299Z,41.10
2018-02-19T13:53:39.343Z,40.57
2018-02-19T13:56:10.305Z,39.89
2018-02-19T13:58:41.387Z,39.63
2018-02-19T14:01:12.456Z,39.79
2018-02-19T14:03:43.418Z,39.99
2018-02-19T14:06:14.456Z,40.34
2018-02-19T14:08:45.421Z,39.94
2018-02-19T14:11:16.460Z,39.85
2018-02-19T14:13:47.522Z,39.68
2018-02-19T14:16:18.504Z,40.17
2018-02-19T14:18:49.546Z,40.64
2018-02-19T14:21:20.549Z,40.67
2018-02-19T14:23:51.621Z,40.87
2018-02-19T14:26:22.625Z,41.14
2018-02-19T14:28:53.582Z,41.07
2018-02-19T14:31:24.642Z,41.14
2018-02-19T14:33:55.630Z,41.48
2018-02-19T14:36:26.703Z,41.07
2018-02-19T14:38:57.851Z,40.92
2018-02-19T14:41:28.861Z,40.90
2018-02-19T14:43:59.848Z,41.32
2018-02-19T14:46:30.816Z,41.59
2018-02-19T14:49:01.879Z,41.59
2018-02-19T14:51:32.886Z,41.43
2018-02-19T14:54:03.961Z,41.75
2018-02-19T14:56:35.005Z,41.95
2018-02-19T14:59:06.049Z,41.96
2018-02-19T15:01:37.063Z,41.72
2018-02-19T15:04:08.052Z,41.83
2018-02-19T15:06:39.076Z,41.64
2018-02-19T15:09:10.064Z,41.60
2018-02-19T15:11:41.121Z,42.13
2018-02-19T15:14:12.139Z,43.04
2018-02-19T15:16:50.313Z,43.38
2018-02-19T15:19:21.281Z,43.45
2018-02-19T15:21:59.296Z,43.79
2018-02-19T15:24:30.260Z,44.63
2018-02-19T15:27:01.296Z,44.96
2018-02-19T15:29:32.299Z,44.76
2018-02-19T15:32:03.333Z,44.87
2018-02-19T15:34:34.456Z,44.79
2018-02-19T15:37:05.433Z,44.90
2018-02-19T15:39:36.443Z,45.07
2018-02-19T15:42:07.419Z,45.00
2018-02-19T15:44:38.456Z,44.76
2018-02-19T15:47:09.433Z,45.19
2018-02-19T15:49:40.474Z,45.35
2018-02-19T15:52:11.430Z,45.31
2018-02-19T15:54:42.447Z,45.36
2018-02-19T15:57:13.431Z,45.67
2018-02-19T15:59:44.435Z,46.25
2018-02-19T16:02:15.484Z,46.47
2018-02-19T16:04:46.534Z,46.89
2018-02-19T16:07:17.558Z,46.97
2018-02-19T16:09:48.571Z,47.00
2018-02-19T16:12:19.528Z,47.12
2018-02-19T16:14:50.522Z,47.67
2018-02-19T16:17:21.521Z,48.17
2018-02-19T16:19:52.497Z,48.07
2018-02-19T16:22:23.516Z,48.18
2018-02-19T16:24:54.511Z,48.22
2018-02-19T16:27:25.569Z,48.64
2018-02-19T16:29:56.557Z,48.88
2018-02-19T16:32:27.585Z,48.83
2018-02-19T16:34:58.632Z,49.29
2018-02-19T16:37:29.670Z,49.71
2018-02-19T16:40:00.682Z,49.79
2018-02-19T16:42:31.664Z,49.80
2018-02-19T16:45:02.768Z,50.12
2018-02-19T16:47:33.699Z,50.50
2018-02-19T16:50:04.692Z,50.73
2018-02-19T16:52:35.718Z,50.80
2018-02-19T16:55:06.718Z,51.18
2018-02-19T16:57:37.760Z,51.14
2018-02-19T17:00:08.786Z,51.02
2018-02-19T17:02:39.797Z,51.11
2018-02-19T17:05:10.831Z,50.96
2018-02-19T17:07:41.884Z,50.81
2018-02-19T17:10:12.881Z,51.16
2018-02-19T17:12:43.888Z,51.45
2018-02-19T17:15:14.905Z,51.50
2018-02-19T17:17:45.903Z,51.58
2018-02-19T17:20:16.952Z,51.43
2018-02-19T17:22:47.934Z,51.76
2018-02-19T17:25:19.017Z,51.86
2018-02-19T17:27:50.047Z,51.87
2018-02-19T17:30:21.085Z,51.83
2018-02-19T17:32:52.144Z,52.06
2018-02-19T17:35:30.252Z,52.21
2018-02-19T17:38:01.301Z,52.76
2018-02-19T17:40:33.128Z,52.71
2018-02-19T17:43:04.177Z,52.58
2018-02-19T17:45:35.223Z,52.26
2018-02-19T17:48:06.250Z,52.45
2018-02-19T17:50:37.261Z,52.61
2018-02-19T17:53:08.264Z,52.94
2018-02-19T17:55:39.257Z,52.95
2018-02-19T17:58:10.313Z,52.68
2018-02-19T18:00:41.335Z,52.54
2018-02-19T18:03:12.411Z,52.69
2018-02-19T18:05:43.477Z,52.91
2018-02-19T18:08:14.510Z,53.17
2018-02-19T18:10:47.070Z,53.68
2018-02-19T18:13:18.037Z,53.68
2018-02-19T18:15:49.655Z,54.14
2018-02-19T18:18:20.659Z,54.59
2018-02-19T18:20:51.640Z,55.08
2018-02-19T18:23:22.618Z,55.35
2018-02-19T18:25:53.572Z,55.61
2018-02-19T18:28:24.591Z,55.45
2018-02-19T18:30:55.596Z,55.49
2018-02-19T18:33:26.629Z,55.23
2018-02-19T18:35:57.645Z,55.21
2018-02-19T18:38:28.649Z,55.38
2018-02-19T18:40:59.684Z,55.49
2018-02-19T18:43:31.014Z,55.62
2018-02-19T18:46:02.270Z,55.76
2018-02-19T18:48:33.313Z,56.28
2018-02-19T18:51:04.340Z,56.59
2018-02-19T18:53:35.324Z,56.48
2018-02-19T18:56:06.349Z,56.38
2018-02-19T18:58:37.312Z,56.17
2018-02-19T19:01:09.652Z,56.23
2018-02-19T19:03:40.674Z,56.29
2018-02-19T19:06:11.690Z,56.52
2018-02-19T19:08:55.155Z,56.72
2018-02-19T19:11:26.157Z,57.19
2018-02-19T19:13:57.177Z,57.55
2018-02-19T19:16:28.165Z,57.42
2018-02-19T19:18:59.154Z,57.17
2018-02-19T19:21:30.136Z,57.66
2018-02-19T19:24:01.143Z,57.79
2018-02-19T19:26:32.126Z,58.14
2018-02-19T19:29:03.943Z,58.55
2018-02-19T19:31:35.028Z,58.64
2018-02-19T19:34:06.023Z,58.46
2018-02-19T19:36:37.031Z,58.23
2018-02-19T19:39:08.006Z,58.17
2018-02-19T19:41:39.045Z,58.10
2018-02-19T19:44:10.120Z,57.86
2018-02-19T19:46:41.073Z,57.79
2018-02-19T19:49:12.104Z,57.47
2018-02-19T19:51:43.122Z,57.07
2018-02-19T19:54:14.182Z,56.98
2018-02-19T19:56:45.199Z,56.66
2018-02-19T19:59:16.222Z,56.67
2018-02-19T20:01:47.185Z,56.67
2018-02-19T20:04:18.252Z,56.57
2018-02-19T20:06:49.245Z,56.63
2018-02-19T20:09:20.248Z,56.53
2018-02-19T20:11:51.197Z,56.37
2018-02-19T20:14:22.241Z,56.09
2018-02-19T20:16:53.241Z,56.04
2018-02-19T20:19:24.330Z,56.03
2018-02-19T20:21:55.365Z,55.91
2018-02-19T20:24:26.372Z,55.82
2018-02-19T20:26:57.489Z,55.46
2018-02-19T20:29:28.451Z,55.17
2018-02-19T20:31:59.457Z,55.01
2018-02-19T20:34:30.518Z,54.95
2018-02-19T20:37:01.590Z,54.70
2018-02-19T20:39:32.595Z,54.78
2018-02-19T20:42:03.634Z,54.71
2018-02-19T20:44:34.610Z,54.70
2018-02-19T20:47:05.729Z,54.86
2018-02-19T20:49:36.730Z,55.13
2018-02-19T20:52:07.771Z,55.94
2018-02-19T20:54:38.835Z,56.40
2018-02-19T20:57:09.917Z,56.41
2018-02-19T20:59:41.218Z,56.08
2018-02-19T21:02:12.262Z,55.93
2018-02-19T21:04:43.208Z,55.87
2018-02-19T21:07:14.240Z,56.40
2018-02-19T21:09:45.241Z,56.67
2018-02-19T21:12:16.291Z,56.64
2018-02-19T21:14:47.280Z,56.77
2018-02-19T21:17:18.292Z,56.57
2018-02-19T21:19:49.299Z,56.60
2018-02-19T21:22:20.315Z,56.79
2018-02-19T21:24:51.297Z,56.76
2018-02-19T21:27:22.322Z,56.41
2018-02-19T21:29:53.335Z,56.44
2018-02-19T21:32:24.353Z,56.84
2018-02-19T21:34:55.366Z,56.91
2018-02-19T21:37:26.405Z,56.95
2018-02-19T21:39:57.416Z,56.82
2018-02-19T21:42:28.397Z,57.10
2018-02-19T21:44:59.618Z,57.38
2018-02-19T21:47:30.594Z,57.39
2018-02-19T21:50:01.646Z,57.36
2018-02-19T21:52:32.673Z,57.36
2018-02-19T21:55:03.758Z,57.64
2018-02-19T21:57:34.735Z,57.87
2018-02-19T22:00:05.764Z,57.82
2018-02-19T22:02:37.489Z,57.73
2018-02-19T22:05:08.872Z,57.60
2018-02-19T22:07:39.861Z,57.54
2018-02-19T22:10:10.899Z,57.38
2018-02-19T22:12:41.922Z,57.37
2018-02-19T22:15:12.931Z,57.47
2018-02-19T22:17:43.949Z,57.29
2018-02-19T22:20:14.986Z,57.38
2018-02-19T22:22:45.976Z,57.36
2018-02-19T22:25:16.963Z,57.33
2018-02-19T22:27:47.934Z,57.31
2018-02-19T22:30:19.007Z,57.31
2018-02-19T22:32:49.989Z,57.29
2018-02-19T22:35:21.046Z,56.95
2018-02-19T22:37:52.027Z,56.85
2018-02-19T22:40:23.304Z,56.59
2018-02-19T22:42:54.337Z,56.44
2018-02-19T22:45:25.350Z,56.49
2018-02-19T22:47:56.401Z,56.47
2018-02-19T22:50:27.350Z,56.33
2018-02-19T22:52:58.366Z,56.27
2018-02-19T22:55:29.370Z,56.21
2018-02-19T22:58:00.363Z,56.21
2018-02-19T23:00:31.396Z,56.12
2018-02-19T23:03:02.423Z,55.98
2018-02-19T23:05:33.597Z,56.09
2018-02-19T23:08:04.615Z,57.27
2018-02-19T23:10:35.591Z,57.85
2018-02-19T23:13:06.613Z,57.63
2018-02-19T23:15:37.582Z,57.27
2018-02-19T23:18:08.624Z,56.88
2018-02-19T23:20:39.602Z,56.88
2018-02-19T23:23:10.643Z,57.38
2018-02-19T23:25:41.646Z,58.13
2018-02-19T23:28:12.642Z,58.63
2018-02-19T23:30:43.622Z,58.71
2018-02-19T23:33:14.678Z,58.64
2018-02-19T23:35:45.664Z,58.17
2018-02-19T23:38:16.710Z,57.75
2018-02-19T23:40:47.881Z,57.50
2018-02-19T23:43:18.938Z,57.29
2018-02-19T23:45:49.946Z,57.11
2018-02-19T23:48:20.975Z,57.00
2018-02-19T23:50:51.945Z,57.11
2018-02-19T23:53:22.946Z,57.11
2018-02-19T23:55:53.966Z,57.12
2018-02-19T23:58:24.945Z,57.17
